sensor_id;sensor_type;location;lat;lon;timestamp;temperature;humidity
66328;DHT22;53133;52.862;6.602;2023-05-10T00:00:41;14.70;99.90
66328;DHT22;53133;52.862;6.602;2023-05-10T00:03:06;14.70;99.90
66328;DHT22;53133;52.862;6.602;2023-05-10T00:05:32;14.60;99.90
66328;DHT22;53133;52.862;6.602;2023-05-10T00:07:58;14.60;99.90
66328;DHT22;53133;52.862;6.602;2023-05-10T00:10:23;14.60;99.90
66328;DHT22;53133;52.862;6.602;2023-05-10T00:12:49;14.60;99.90
66328;DHT22;53133;52.862;6.602;2023-05-10T00:15:15;14.60;99.90
66328;DHT22;53133;52.862;6.602;2023-05-10T00:17:40;14.60;99.90
66328;DHT22;53133;52.862;6.602;2023-05-10T00:20:06;14.60;99.90
66328;DHT22;53133;52.862;6.602;2023-05-10T00:22:41;14.60;99.90
66328;DHT22;53133;52.862;6.602;2023-05-10T00:25:07;14.60;99.90
66328;DHT22;53133;52.862;6.602;2023-05-10T00:27:33;14.50;99.90
66328;DHT22;53133;52.862;6.602;2023-05-10T00:29:58;14.50;99.90
66328;DHT22;53133;52.862;6.602;2023-05-10T00:32:24;14.50;99.90
66328;DHT22;53133;52.862;6.602;2023-05-10T00:34:50;14.50;99.90
66328;DHT22;53133;52.862;6.602;2023-05-10T00:37:16;14.50;99.90
66328;DHT22;53133;52.862;6.602;2023-05-10T00:39:41;14.50;99.90
66328;DHT22;53133;52.862;6.602;2023-05-10T00:42:07;14.50;99.90
66328;DHT22;53133;52.862;6.602;2023-05-10T00:44:32;14.50;99.90
66328;DHT22;53133;52.862;6.602;2023-05-10T00:46:59;14.50;99.90
66328;DHT22;53133;52.862;6.602;2023-05-10T00:49:25;14.50;99.90
66328;DHT22;53133;52.862;6.602;2023-05-10T00:51:51;14.40;99.90
66328;DHT22;53133;52.862;6.602;2023-05-10T00:54:16;14.40;99.90
66328;DHT22;53133;52.862;6.602;2023-05-10T00:56:42;14.40;99.90
66328;DHT22;53133;52.862;6.602;2023-05-10T00:59:15;14.40;99.90
66328;DHT22;53133;52.862;6.602;2023-05-10T01:01:42;14.40;99.90
66328;DHT22;53133;52.862;6.602;2023-05-10T01:04:08;14.40;99.90
66328;DHT22;53133;52.862;6.602;2023-05-10T01:06:35;14.30;99.90
66328;DHT22;53133;52.862;6.602;2023-05-10T01:09:01;14.30;99.90
66328;DHT22;53133;52.862;6.602;2023-05-10T01:11:26;14.30;99.90
66328;DHT22;53133;52.862;6.602;2023-05-10T01:13:55;14.30;99.90
66328;DHT22;53133;52.862;6.602;2023-05-10T01:16:22;14.30;99.90
66328;DHT22;53133;52.862;6.602;2023-05-10T01:18:48;14.30;99.90
66328;DHT22;53133;52.862;6.602;2023-05-10T01:34:53;14.20;99.90
66328;DHT22;53133;52.862;6.602;2023-05-10T01:37:23;14.20;99.90
66328;DHT22;53133;52.862;6.602;2023-05-10T01:39:58;14.20;99.90
66328;DHT22;53133;52.862;6.602;2023-05-10T01:42:28;14.20;99.90
66328;DHT22;53133;52.862;6.602;2023-05-10T01:47:47;14.20;99.90
66328;DHT22;53133;52.862;6.602;2023-05-10T01:50:19;14.20;99.90
66328;DHT22;53133;52.862;6.602;2023-05-10T01:52:53;14.20;99.90
66328;DHT22;53133;52.862;6.602;2023-05-10T01:55:21;14.20;99.90
66328;DHT22;53133;52.862;6.602;2023-05-10T01:57:52;14.20;99.90
66328;DHT22;53133;52.862;6.602;2023-05-10T02:00:23;14.20;99.90
66328;DHT22;53133;52.862;6.602;2023-05-10T02:02:49;14.20;99.90
66328;DHT22;53133;52.862;6.602;2023-05-10T02:05:16;14.10;99.90
66328;DHT22;53133;52.862;6.602;2023-05-10T02:07:45;14.10;99.90
66328;DHT22;53133;52.862;6.602;2023-05-10T02:10:12;14.10;99.90
66328;DHT22;53133;52.862;6.602;2023-05-10T02:12:43;14.10;99.90
66328;DHT22;53133;52.862;6.602;2023-05-10T02:15:11;14.10;99.90
66328;DHT22;53133;52.862;6.602;2023-05-10T02:17:37;14.10;99.90
66328;DHT22;53133;52.862;6.602;2023-05-10T02:20:05;14.10;99.90
66328;DHT22;53133;52.862;6.602;2023-05-10T02:22:32;14.10;99.90
66328;DHT22;53133;52.862;6.602;2023-05-10T02:24:59;14.10;99.90
66328;DHT22;53133;52.862;6.602;2023-05-10T02:27:27;14.10;99.90
66328;DHT22;53133;52.862;6.602;2023-05-10T02:29:54;14.10;99.90
66328;DHT22;53133;52.862;6.602;2023-05-10T02:32:21;14.10;99.90
66328;DHT22;53133;52.862;6.602;2023-05-10T02:34:48;14.10;99.90
66328;DHT22;53133;52.862;6.602;2023-05-10T02:37:19;14.10;99.90
66328;DHT22;53133;52.862;6.602;2023-05-10T02:39:50;14.10;99.90
66328;DHT22;53133;52.862;6.602;2023-05-10T02:42:19;14.10;99.90
66328;DHT22;53133;52.862;6.602;2023-05-10T02:44:48;14.10;99.90
66328;DHT22;53133;52.862;6.602;2023-05-10T02:47:15;14.10;99.90
66328;DHT22;53133;52.862;6.602;2023-05-10T02:49:41;14.10;99.90
66328;DHT22;53133;52.862;6.602;2023-05-10T02:52:07;14.10;99.90
66328;DHT22;53133;52.862;6.602;2023-05-10T02:54:41;14.10;99.90
66328;DHT22;53133;52.862;6.602;2023-05-10T02:57:11;14.10;99.90
66328;DHT22;53133;52.862;6.602;2023-05-10T02:59:40;14.10;99.90
66328;DHT22;53133;52.862;6.602;2023-05-10T03:02:08;14.10;99.90
66328;DHT22;53133;52.862;6.602;2023-05-10T03:04:34;14.00;99.90
66328;DHT22;53133;52.862;6.602;2023-05-10T03:07:01;14.10;99.90
66328;DHT22;53133;52.862;6.602;2023-05-10T03:09:27;14.10;99.90
66328;DHT22;53133;52.862;6.602;2023-05-10T03:12:11;14.00;99.90
66328;DHT22;53133;52.862;6.602;2023-05-10T03:14:49;14.00;99.90
66328;DHT22;53133;52.862;6.602;2023-05-10T03:17:30;14.00;99.90
66328;DHT22;53133;52.862;6.602;2023-05-10T03:20:02;14.00;99.90
66328;DHT22;53133;52.862;6.602;2023-05-10T03:22:31;14.00;99.90
66328;DHT22;53133;52.862;6.602;2023-05-10T03:24:57;13.90;99.90
66328;DHT22;53133;52.862;6.602;2023-05-10T03:27:26;13.90;99.90
66328;DHT22;53133;52.862;6.602;2023-05-10T03:29:53;13.90;99.90
66328;DHT22;53133;52.862;6.602;2023-05-10T03:32:20;13.90;99.90
66328;DHT22;53133;52.862;6.602;2023-05-10T03:34:45;13.90;99.90
66328;DHT22;53133;52.862;6.602;2023-05-10T03:37:11;13.90;99.90
66328;DHT22;53133;52.862;6.602;2023-05-10T03:39:36;13.90;99.90
66328;DHT22;53133;52.862;6.602;2023-05-10T03:42:02;13.90;99.90
66328;DHT22;53133;52.862;6.602;2023-05-10T03:44:28;13.80;99.90
66328;DHT22;53133;52.862;6.602;2023-05-10T03:46:53;13.80;99.90
66328;DHT22;53133;52.862;6.602;2023-05-10T03:49:19;13.80;99.90
66328;DHT22;53133;52.862;6.602;2023-05-10T03:51:44;13.80;99.90
66328;DHT22;53133;52.862;6.602;2023-05-10T03:54:10;13.80;99.90
66328;DHT22;53133;52.862;6.602;2023-05-10T03:56:35;13.80;99.90
66328;DHT22;53133;52.862;6.602;2023-05-10T03:59:01;13.80;99.90
66328;DHT22;53133;52.862;6.602;2023-05-10T04:01:27;13.80;99.90
66328;DHT22;53133;52.862;6.602;2023-05-10T04:03:52;13.80;99.90
66328;DHT22;53133;52.862;6.602;2023-05-10T04:06:18;13.70;99.90
66328;DHT22;53133;52.862;6.602;2023-05-10T04:08:43;13.80;99.90
66328;DHT22;53133;52.862;6.602;2023-05-10T04:11:11;13.80;99.90
66328;DHT22;53133;52.862;6.602;2023-05-10T04:13:37;13.80;99.90
66328;DHT22;53133;52.862;6.602;2023-05-10T04:16:03;13.70;99.90
66328;DHT22;53133;52.862;6.602;2023-05-10T04:18:30;13.70;99.90
66328;DHT22;53133;52.862;6.602;2023-05-10T04:20:58;13.80;99.90
66328;DHT22;53133;52.862;6.602;2023-05-10T04:23:23;13.80;99.90
66328;DHT22;53133;52.862;6.602;2023-05-10T04:25:49;13.70;99.90
66328;DHT22;53133;52.862;6.602;2023-05-10T04:28:15;13.70;99.90
66328;DHT22;53133;52.862;6.602;2023-05-10T04:30:40;13.70;99.90
66328;DHT22;53133;52.862;6.602;2023-05-10T04:33:06;13.80;99.90
66328;DHT22;53133;52.862;6.602;2023-05-10T04:35:32;13.70;99.90
66328;DHT22;53133;52.862;6.602;2023-05-10T04:37:57;13.70;99.90
66328;DHT22;53133;52.862;6.602;2023-05-10T04:40:23;13.70;99.90
66328;DHT22;53133;52.862;6.602;2023-05-10T04:42:49;13.70;99.90
66328;DHT22;53133;52.862;6.602;2023-05-10T04:45:15;13.70;99.90
66328;DHT22;53133;52.862;6.602;2023-05-10T04:47:40;13.70;99.90
66328;DHT22;53133;52.862;6.602;2023-05-10T04:50:06;13.70;99.90
66328;DHT22;53133;52.862;6.602;2023-05-10T04:52:32;13.70;99.90
66328;DHT22;53133;52.862;6.602;2023-05-10T04:54:58;13.70;99.90
66328;DHT22;53133;52.862;6.602;2023-05-10T04:57:23;13.70;99.90
66328;DHT22;53133;52.862;6.602;2023-05-10T04:59:49;13.70;99.90
66328;DHT22;53133;52.862;6.602;2023-05-10T05:02:14;13.70;99.90
66328;DHT22;53133;52.862;6.602;2023-05-10T05:04:40;13.60;99.90
66328;DHT22;53133;52.862;6.602;2023-05-10T05:07:06;13.60;99.90
66328;DHT22;53133;52.862;6.602;2023-05-10T05:09:31;13.70;99.90
66328;DHT22;53133;52.862;6.602;2023-05-10T05:11:58;13.70;99.90
66328;DHT22;53133;52.862;6.602;2023-05-10T05:14:23;13.70;99.90
66328;DHT22;53133;52.862;6.602;2023-05-10T05:16:51;13.70;99.90
66328;DHT22;53133;52.862;6.602;2023-05-10T05:19:17;13.70;99.90
66328;DHT22;53133;52.862;6.602;2023-05-10T05:21:42;13.70;99.90
66328;DHT22;53133;52.862;6.602;2023-05-10T05:24:08;13.70;99.90
66328;DHT22;53133;52.862;6.602;2023-05-10T05:26:35;13.70;99.90
66328;DHT22;53133;52.862;6.602;2023-05-10T05:29:01;13.70;99.90
66328;DHT22;53133;52.862;6.602;2023-05-10T05:31:26;13.70;99.90
66328;DHT22;53133;52.862;6.602;2023-05-10T05:33:52;13.70;99.90
66328;DHT22;53133;52.862;6.602;2023-05-10T05:36:17;13.70;99.90
66328;DHT22;53133;52.862;6.602;2023-05-10T05:38:43;13.70;99.90
66328;DHT22;53133;52.862;6.602;2023-05-10T05:41:09;13.70;99.90
66328;DHT22;53133;52.862;6.602;2023-05-10T05:43:34;13.70;99.90
66328;DHT22;53133;52.862;6.602;2023-05-10T05:46:00;13.70;99.90
66328;DHT22;53133;52.862;6.602;2023-05-10T05:48:26;13.70;99.90
66328;DHT22;53133;52.862;6.602;2023-05-10T05:50:54;13.70;99.90
66328;DHT22;53133;52.862;6.602;2023-05-10T05:53:21;13.70;99.90
66328;DHT22;53133;52.862;6.602;2023-05-10T05:55:54;13.70;99.90
66328;DHT22;53133;52.862;6.602;2023-05-10T05:58:20;13.60;99.90
66328;DHT22;53133;52.862;6.602;2023-05-10T06:00:46;13.60;99.90
66328;DHT22;53133;52.862;6.602;2023-05-10T06:03:12;13.60;99.90
66328;DHT22;53133;52.862;6.602;2023-05-10T06:05:37;13.60;99.90
66328;DHT22;53133;52.862;6.602;2023-05-10T06:08:03;13.60;99.90
66328;DHT22;53133;52.862;6.602;2023-05-10T06:10:29;13.60;99.90
66328;DHT22;53133;52.862;6.602;2023-05-10T06:12:55;13.60;99.90
66328;DHT22;53133;52.862;6.602;2023-05-10T06:15:21;13.60;99.90
66328;DHT22;53133;52.862;6.602;2023-05-10T06:17:47;13.60;99.90
66328;DHT22;53133;52.862;6.602;2023-05-10T06:20:15;13.60;99.90
66328;DHT22;53133;52.862;6.602;2023-05-10T06:22:41;13.60;99.90
66328;DHT22;53133;52.862;6.602;2023-05-10T06:25:07;13.60;99.90
66328;DHT22;53133;52.862;6.602;2023-05-10T06:27:32;13.50;99.90
66328;DHT22;53133;52.862;6.602;2023-05-10T06:29:58;13.50;99.90
66328;DHT22;53133;52.862;6.602;2023-05-10T06:32:23;13.50;99.90
66328;DHT22;53133;52.862;6.602;2023-05-10T06:34:49;13.50;99.90
66328;DHT22;53133;52.862;6.602;2023-05-10T06:37:15;13.50;99.90
66328;DHT22;53133;52.862;6.602;2023-05-10T06:39:40;13.60;99.90
66328;DHT22;53133;52.862;6.602;2023-05-10T06:42:06;13.60;99.90
66328;DHT22;53133;52.862;6.602;2023-05-10T06:44:31;13.60;99.90
66328;DHT22;53133;52.862;6.602;2023-05-10T06:46:57;13.60;99.90
66328;DHT22;53133;52.862;6.602;2023-05-10T06:49:22;13.60;99.90
66328;DHT22;53133;52.862;6.602;2023-05-10T06:51:48;13.60;99.90
66328;DHT22;53133;52.862;6.602;2023-05-10T06:54:14;13.60;99.90
66328;DHT22;53133;52.862;6.602;2023-05-10T06:56:39;13.60;99.90
66328;DHT22;53133;52.862;6.602;2023-05-10T06:59:06;13.60;99.90
66328;DHT22;53133;52.862;6.602;2023-05-10T07:01:31;13.60;99.90
66328;DHT22;53133;52.862;6.602;2023-05-10T07:03:57;13.60;99.90
66328;DHT22;53133;52.862;6.602;2023-05-10T07:06:23;13.70;99.90
66328;DHT22;53133;52.862;6.602;2023-05-10T07:08:48;13.70;99.90
66328;DHT22;53133;52.862;6.602;2023-05-10T07:11:14;13.70;99.90
66328;DHT22;53133;52.862;6.602;2023-05-10T07:13:39;13.70;99.90
66328;DHT22;53133;52.862;6.602;2023-05-10T07:16:09;13.70;99.90
66328;DHT22;53133;52.862;6.602;2023-05-10T07:18:35;13.70;99.90
66328;DHT22;53133;52.862;6.602;2023-05-10T07:21:01;13.70;99.90
66328;DHT22;53133;52.862;6.602;2023-05-10T07:23:27;13.60;99.90
66328;DHT22;53133;52.862;6.602;2023-05-10T07:25:53;13.70;99.90
66328;DHT22;53133;52.862;6.602;2023-05-10T07:28:18;13.70;99.90
66328;DHT22;53133;52.862;6.602;2023-05-10T07:30:45;13.60;99.90
66328;DHT22;53133;52.862;6.602;2023-05-10T07:33:13;13.70;99.90
66328;DHT22;53133;52.862;6.602;2023-05-10T07:35:39;13.70;99.90
66328;DHT22;53133;52.862;6.602;2023-05-10T07:38:05;13.70;99.90
66328;DHT22;53133;52.862;6.602;2023-05-10T07:40:31;13.70;99.90
66328;DHT22;53133;52.862;6.602;2023-05-10T07:42:57;13.70;99.90
66328;DHT22;53133;52.862;6.602;2023-05-10T07:45:23;13.70;99.90
66328;DHT22;53133;52.862;6.602;2023-05-10T07:47:49;13.70;99.90
66328;DHT22;53133;52.862;6.602;2023-05-10T07:50:14;13.70;99.90
66328;DHT22;53133;52.862;6.602;2023-05-10T07:52:40;13.70;99.90
66328;DHT22;53133;52.862;6.602;2023-05-10T07:55:06;13.70;99.90
66328;DHT22;53133;52.862;6.602;2023-05-10T07:57:33;13.70;99.90
66328;DHT22;53133;52.862;6.602;2023-05-10T07:59:59;13.70;99.90
66328;DHT22;53133;52.862;6.602;2023-05-10T08:02:25;13.70;99.90
66328;DHT22;53133;52.862;6.602;2023-05-10T08:04:51;13.70;99.90
66328;DHT22;53133;52.862;6.602;2023-05-10T08:07:17;13.70;99.90
66328;DHT22;53133;52.862;6.602;2023-05-10T08:09:42;13.80;99.90
66328;DHT22;53133;52.862;6.602;2023-05-10T08:12:08;13.80;99.90
66328;DHT22;53133;52.862;6.602;2023-05-10T08:14:35;13.80;99.90
66328;DHT22;53133;52.862;6.602;2023-05-10T08:17:02;13.80;99.90
66328;DHT22;53133;52.862;6.602;2023-05-10T08:19:28;13.90;99.90
66328;DHT22;53133;52.862;6.602;2023-05-10T08:21:54;13.90;99.90
66328;DHT22;53133;52.862;6.602;2023-05-10T08:24:21;13.90;99.90
66328;DHT22;53133;52.862;6.602;2023-05-10T08:26:47;14.00;99.90
66328;DHT22;53133;52.862;6.602;2023-05-10T08:29:13;14.00;99.90
66328;DHT22;53133;52.862;6.602;2023-05-10T08:31:39;14.00;99.90
66328;DHT22;53133;52.862;6.602;2023-05-10T08:34:04;14.10;99.90
66328;DHT22;53133;52.862;6.602;2023-05-10T08:36:30;14.10;99.90
66328;DHT22;53133;52.862;6.602;2023-05-10T08:38:56;14.20;99.90
66328;DHT22;53133;52.862;6.602;2023-05-10T08:41:22;14.20;99.90
66328;DHT22;53133;52.862;6.602;2023-05-10T08:43:50;14.20;99.90
66328;DHT22;53133;52.862;6.602;2023-05-10T08:46:18;14.30;99.90
66328;DHT22;53133;52.862;6.602;2023-05-10T08:48:48;14.30;99.90
66328;DHT22;53133;52.862;6.602;2023-05-10T08:51:15;14.30;99.90
66328;DHT22;53133;52.862;6.602;2023-05-10T08:53:44;14.30;99.90
66328;DHT22;53133;52.862;6.602;2023-05-10T08:56:09;14.30;99.90
66328;DHT22;53133;52.862;6.602;2023-05-10T08:58:36;14.30;99.90
66328;DHT22;53133;52.862;6.602;2023-05-10T09:01:03;14.30;99.90
66328;DHT22;53133;52.862;6.602;2023-05-10T09:03:29;14.40;99.90
66328;DHT22;53133;52.862;6.602;2023-05-10T09:05:55;14.40;99.90
66328;DHT22;53133;52.862;6.602;2023-05-10T09:08:21;14.40;99.90
66328;DHT22;53133;52.862;6.602;2023-05-10T09:10:50;14.40;99.90
66328;DHT22;53133;52.862;6.602;2023-05-10T09:13:17;14.40;99.90
66328;DHT22;53133;52.862;6.602;2023-05-10T09:15:44;14.40;99.90
66328;DHT22;53133;52.862;6.602;2023-05-10T09:18:10;14.40;99.90
66328;DHT22;53133;52.862;6.602;2023-05-10T09:20:36;14.40;99.90
66328;DHT22;53133;52.862;6.602;2023-05-10T09:23:02;14.50;99.90
66328;DHT22;53133;52.862;6.602;2023-05-10T09:25:27;14.40;99.90
66328;DHT22;53133;52.862;6.602;2023-05-10T09:27:53;14.30;99.90
66328;DHT22;53133;52.862;6.602;2023-05-10T09:30:29;14.30;99.90
66328;DHT22;53133;52.862;6.602;2023-05-10T09:32:56;14.30;99.90
66328;DHT22;53133;52.862;6.602;2023-05-10T09:35:24;14.30;99.90
66328;DHT22;53133;52.862;6.602;2023-05-10T09:37:56;14.30;99.90
66328;DHT22;53133;52.862;6.602;2023-05-10T09:40:26;14.30;99.90
66328;DHT22;53133;52.862;6.602;2023-05-10T09:43:03;14.30;99.90
66328;DHT22;53133;52.862;6.602;2023-05-10T09:45:30;14.30;99.90
66328;DHT22;53133;52.862;6.602;2023-05-10T09:47:56;14.40;99.90
66328;DHT22;53133;52.862;6.602;2023-05-10T09:50:23;14.40;99.90
66328;DHT22;53133;52.862;6.602;2023-05-10T09:52:53;14.40;99.90
66328;DHT22;53133;52.862;6.602;2023-05-10T09:55:22;14.40;99.90
66328;DHT22;53133;52.862;6.602;2023-05-10T09:57:48;14.40;99.90
66328;DHT22;53133;52.862;6.602;2023-05-10T10:00:20;14.50;99.90
66328;DHT22;53133;52.862;6.602;2023-05-10T10:02:57;14.50;99.90
66328;DHT22;53133;52.862;6.602;2023-05-10T10:05:30;14.60;99.90
66328;DHT22;53133;52.862;6.602;2023-05-10T10:07:57;14.60;99.90
66328;DHT22;53133;52.862;6.602;2023-05-10T10:10:24;14.70;99.90
66328;DHT22;53133;52.862;6.602;2023-05-10T10:12:50;14.70;99.90
66328;DHT22;53133;52.862;6.602;2023-05-10T10:15:16;14.80;99.90
66328;DHT22;53133;52.862;6.602;2023-05-10T10:17:43;14.90;99.90
66328;DHT22;53133;52.862;6.602;2023-05-10T10:20:09;14.90;99.90
66328;DHT22;53133;52.862;6.602;2023-05-10T10:22:36;15.00;99.90
66328;DHT22;53133;52.862;6.602;2023-05-10T10:25:02;15.00;99.90
66328;DHT22;53133;52.862;6.602;2023-05-10T10:30:21;14.90;99.90
66328;DHT22;53133;52.862;6.602;2023-05-10T10:35:45;15.00;99.90
66328;DHT22;53133;52.862;6.602;2023-05-10T10:38:12;15.00;99.90
66328;DHT22;53133;52.862;6.602;2023-05-10T10:40:39;15.00;99.90
66328;DHT22;53133;52.862;6.602;2023-05-10T10:43:22;15.00;99.90
66328;DHT22;53133;52.862;6.602;2023-05-10T10:46:15;15.00;99.90
66328;DHT22;53133;52.862;6.602;2023-05-10T10:48:41;15.00;99.90
66328;DHT22;53133;52.862;6.602;2023-05-10T10:51:07;15.00;99.90
66328;DHT22;53133;52.862;6.602;2023-05-10T10:53:33;15.00;99.90
66328;DHT22;53133;52.862;6.602;2023-05-10T10:56:12;15.10;99.90
66328;DHT22;53133;52.862;6.602;2023-05-10T10:58:40;15.10;99.90
66328;DHT22;53133;52.862;6.602;2023-05-10T11:01:32;15.20;99.90
66328;DHT22;53133;52.862;6.602;2023-05-10T11:06:35;15.20;99.90
66328;DHT22;53133;52.862;6.602;2023-05-10T11:11:34;15.20;99.90
66328;DHT22;53133;52.862;6.602;2023-05-10T11:14:06;15.20;99.90
66328;DHT22;53133;52.862;6.602;2023-05-10T11:16:42;15.20;99.90
66328;DHT22;53133;52.862;6.602;2023-05-10T11:19:10;15.20;99.90
66328;DHT22;53133;52.862;6.602;2023-05-10T11:24:15;15.20;99.90
66328;DHT22;53133;52.862;6.602;2023-05-10T11:26:41;15.20;99.90
66328;DHT22;53133;52.862;6.602;2023-05-10T11:29:07;15.20;99.90
66328;DHT22;53133;52.862;6.602;2023-05-10T11:31:32;15.30;99.90
66328;DHT22;53133;52.862;6.602;2023-05-10T11:33:59;15.20;99.90
66328;DHT22;53133;52.862;6.602;2023-05-10T11:36:33;15.20;99.90
66328;DHT22;53133;52.862;6.602;2023-05-10T11:38:59;15.30;99.90
66328;DHT22;53133;52.862;6.602;2023-05-10T11:41:27;15.20;99.90
66328;DHT22;53133;52.862;6.602;2023-05-10T11:43:54;15.20;99.90
66328;DHT22;53133;52.862;6.602;2023-05-10T11:46:21;15.20;99.90
66328;DHT22;53133;52.862;6.602;2023-05-10T11:48:50;15.20;99.90
66328;DHT22;53133;52.862;6.602;2023-05-10T11:51:20;15.20;99.90
66328;DHT22;53133;52.862;6.602;2023-05-10T11:53:46;15.20;99.90
66328;DHT22;53133;52.862;6.602;2023-05-10T11:56:11;15.20;99.90
66328;DHT22;53133;52.862;6.602;2023-05-10T11:58:38;15.20;99.90
66328;DHT22;53133;52.862;6.602;2023-05-10T12:01:05;15.30;99.90
66328;DHT22;53133;52.862;6.602;2023-05-10T12:03:32;15.30;99.90
66328;DHT22;53133;52.862;6.602;2023-05-10T12:05:59;15.30;99.90
66328;DHT22;53133;52.862;6.602;2023-05-10T12:08:27;15.30;99.90
66328;DHT22;53133;52.862;6.602;2023-05-10T12:11:03;15.40;99.90
66328;DHT22;53133;52.862;6.602;2023-05-10T12:13:29;15.40;99.90
66328;DHT22;53133;52.862;6.602;2023-05-10T12:15:57;15.40;99.90
66328;DHT22;53133;52.862;6.602;2023-05-10T12:18:23;15.50;99.90
66328;DHT22;53133;52.862;6.602;2023-05-10T12:21:03;15.50;99.90
66328;DHT22;53133;52.862;6.602;2023-05-10T12:23:28;15.50;99.90
66328;DHT22;53133;52.862;6.602;2023-05-10T12:26:02;15.50;99.90
66328;DHT22;53133;52.862;6.602;2023-05-10T12:28:30;15.50;99.90
66328;DHT22;53133;52.862;6.602;2023-05-10T12:30:58;15.50;99.90
66328;DHT22;53133;52.862;6.602;2023-05-10T12:33:24;15.50;99.90
66328;DHT22;53133;52.862;6.602;2023-05-10T12:35:51;15.40;99.90
66328;DHT22;53133;52.862;6.602;2023-05-10T12:38:32;15.40;99.90
66328;DHT22;53133;52.862;6.602;2023-05-10T12:41:00;15.40;99.90
66328;DHT22;53133;52.862;6.602;2023-05-10T12:43:26;15.30;99.90
66328;DHT22;53133;52.862;6.602;2023-05-10T12:45:52;15.30;99.90
66328;DHT22;53133;52.862;6.602;2023-05-10T12:48:18;15.30;99.90
66328;DHT22;53133;52.862;6.602;2023-05-10T12:50:43;15.30;99.90
66328;DHT22;53133;52.862;6.602;2023-05-10T12:53:09;15.40;99.90
66328;DHT22;53133;52.862;6.602;2023-05-10T12:55:34;15.40;99.90
66328;DHT22;53133;52.862;6.602;2023-05-10T12:58:00;15.30;99.90
66328;DHT22;53133;52.862;6.602;2023-05-10T13:00:26;15.40;99.90
66328;DHT22;53133;52.862;6.602;2023-05-10T13:02:51;15.40;99.90
66328;DHT22;53133;52.862;6.602;2023-05-10T13:05:17;15.40;99.90
66328;DHT22;53133;52.862;6.602;2023-05-10T13:07:43;15.40;99.90
66328;DHT22;53133;52.862;6.602;2023-05-10T13:10:09;15.30;99.90
66328;DHT22;53133;52.862;6.602;2023-05-10T13:12:35;15.30;99.90
66328;DHT22;53133;52.862;6.602;2023-05-10T13:15:01;15.30;99.90
66328;DHT22;53133;52.862;6.602;2023-05-10T13:17:26;15.30;99.90
66328;DHT22;53133;52.862;6.602;2023-05-10T13:19:52;15.30;99.90
66328;DHT22;53133;52.862;6.602;2023-05-10T13:22:17;15.30;99.90
66328;DHT22;53133;52.862;6.602;2023-05-10T13:24:43;15.30;99.90
66328;DHT22;53133;52.862;6.602;2023-05-10T13:27:08;15.30;99.90
66328;DHT22;53133;52.862;6.602;2023-05-10T13:29:34;15.20;99.90
66328;DHT22;53133;52.862;6.602;2023-05-10T13:32:00;15.20;99.90
66328;DHT22;53133;52.862;6.602;2023-05-10T13:34:26;15.20;99.90
66328;DHT22;53133;52.862;6.602;2023-05-10T13:36:51;15.20;99.90
66328;DHT22;53133;52.862;6.602;2023-05-10T13:39:18;15.10;99.90
66328;DHT22;53133;52.862;6.602;2023-05-10T13:41:43;15.20;99.90
66328;DHT22;53133;52.862;6.602;2023-05-10T13:44:11;15.20;99.90
66328;DHT22;53133;52.862;6.602;2023-05-10T13:46:37;15.20;99.90
66328;DHT22;53133;52.862;6.602;2023-05-10T13:49:04;15.10;99.90
66328;DHT22;53133;52.862;6.602;2023-05-10T13:51:29;15.10;99.90
66328;DHT22;53133;52.862;6.602;2023-05-10T13:53:57;15.20;99.90
66328;DHT22;53133;52.862;6.602;2023-05-10T13:56:23;15.20;99.90
66328;DHT22;53133;52.862;6.602;2023-05-10T13:58:48;15.20;99.90
66328;DHT22;53133;52.862;6.602;2023-05-10T14:01:14;15.20;99.90
66328;DHT22;53133;52.862;6.602;2023-05-10T14:03:39;15.20;99.90
66328;DHT22;53133;52.862;6.602;2023-05-10T14:06:05;15.20;99.90
66328;DHT22;53133;52.862;6.602;2023-05-10T14:08:32;15.20;99.90
66328;DHT22;53133;52.862;6.602;2023-05-10T14:10:58;15.20;99.90
66328;DHT22;53133;52.862;6.602;2023-05-10T14:13:24;15.30;99.90
66328;DHT22;53133;52.862;6.602;2023-05-10T14:15:53;15.30;99.90
66328;DHT22;53133;52.862;6.602;2023-05-10T14:18:19;15.30;99.90
66328;DHT22;53133;52.862;6.602;2023-05-10T14:20:44;15.30;99.90
66328;DHT22;53133;52.862;6.602;2023-05-10T14:23:10;15.30;99.90
66328;DHT22;53133;52.862;6.602;2023-05-10T14:25:36;15.40;99.90
66328;DHT22;53133;52.862;6.602;2023-05-10T14:28:03;15.40;99.90
66328;DHT22;53133;52.862;6.602;2023-05-10T14:30:29;15.40;99.90
66328;DHT22;53133;52.862;6.602;2023-05-10T14:32:55;15.40;99.90
66328;DHT22;53133;52.862;6.602;2023-05-10T14:35:20;15.40;99.90
66328;DHT22;53133;52.862;6.602;2023-05-10T14:37:46;15.40;99.90
66328;DHT22;53133;52.862;6.602;2023-05-10T14:40:12;15.40;99.90
66328;DHT22;53133;52.862;6.602;2023-05-10T14:42:38;15.40;99.90
66328;DHT22;53133;52.862;6.602;2023-05-10T14:45:04;15.30;99.90
66328;DHT22;53133;52.862;6.602;2023-05-10T14:47:29;15.30;99.90
66328;DHT22;53133;52.862;6.602;2023-05-10T14:49:55;15.20;99.90
66328;DHT22;53133;52.862;6.602;2023-05-10T14:52:21;15.30;99.90
66328;DHT22;53133;52.862;6.602;2023-05-10T14:54:46;15.30;99.90
66328;DHT22;53133;52.862;6.602;2023-05-10T14:57:12;15.30;99.90
66328;DHT22;53133;52.862;6.602;2023-05-10T14:59:38;15.30;99.90
66328;DHT22;53133;52.862;6.602;2023-05-10T15:02:04;15.40;99.90
66328;DHT22;53133;52.862;6.602;2023-05-10T15:04:29;15.40;99.90
66328;DHT22;53133;52.862;6.602;2023-05-10T15:06:55;15.40;99.90
66328;DHT22;53133;52.862;6.602;2023-05-10T15:09:24;15.40;99.90
66328;DHT22;53133;52.862;6.602;2023-05-10T15:11:50;15.40;99.90
66328;DHT22;53133;52.862;6.602;2023-05-10T15:14:16;15.40;99.90
66328;DHT22;53133;52.862;6.602;2023-05-10T15:16:41;15.40;99.90
66328;DHT22;53133;52.862;6.602;2023-05-10T15:19:07;15.40;99.90
66328;DHT22;53133;52.862;6.602;2023-05-10T15:21:33;15.30;99.90
66328;DHT22;53133;52.862;6.602;2023-05-10T15:24:05;15.40;99.90
66328;DHT22;53133;52.862;6.602;2023-05-10T15:26:30;15.40;99.90
66328;DHT22;53133;52.862;6.602;2023-05-10T15:28:56;15.40;99.90
66328;DHT22;53133;52.862;6.602;2023-05-10T15:31:22;15.50;99.90
66328;DHT22;53133;52.862;6.602;2023-05-10T15:33:47;15.50;99.90
66328;DHT22;53133;52.862;6.602;2023-05-10T15:36:13;15.40;99.90
66328;DHT22;53133;52.862;6.602;2023-05-10T15:38:38;15.50;99.90
66328;DHT22;53133;52.862;6.602;2023-05-10T15:41:04;15.50;99.90
66328;DHT22;53133;52.862;6.602;2023-05-10T15:43:30;15.60;99.90
66328;DHT22;53133;52.862;6.602;2023-05-10T15:45:55;15.60;99.90
66328;DHT22;53133;52.862;6.602;2023-05-10T15:48:21;15.60;99.90
66328;DHT22;53133;52.862;6.602;2023-05-10T15:50:46;15.60;99.90
66328;DHT22;53133;52.862;6.602;2023-05-10T15:53:12;15.60;99.90
66328;DHT22;53133;52.862;6.602;2023-05-10T15:55:37;15.70;99.90
66328;DHT22;53133;52.862;6.602;2023-05-10T15:58:03;15.60;99.90